Time;durP1;ratioP1;P1;durP2;ratioP2;P2;SDS_P1;SDS_P2;PMS_P1;PMS_P2;Temp;Humidity;BMP_temperature;BMP_pressure;BME280_temperature;BME280_humidity;BME280_pressure;Samples;Min_cycle;Max_cycle;Signal;HPM_P1;HPM_P2
2021/12/17 00:06:41;;;;;;;0.38;0.10;;;2.00;99.90;;;;;;20803173;28;20033;-50
2021/12/17 00:16:44;;;;;;;0.05;0.00;;;1.80;99.90;;;;;;20802619;28;20445;-50
2021/12/17 00:57:51;;;;;;;0.10;0.00;;;3.40;98.50;;;;;;20800373;28;20095;-51
2021/12/17 01:07:56;;;;;;;0.22;0.10;;;4.10;96.80;;;;;;20800717;28;20045;-50
2021/12/17 01:18:05;;;;;;;0.10;0.00;;;3.90;97.90;;;;;;20799877;28;20103;-51
2021/12/17 01:40:03;;;;;;;0.17;0.00;;;3.80;97.20;;;;;;20816172;28;20042;-53
2021/12/17 02:00:28;;;;;;;0.00;0.00;;;4.80;94.50;;;;;;20497582;29;20070;-51
2021/12/17 02:11:11;;;;;;;0.10;0.00;;;4.60;96.00;;;;;;20496437;29;20051;-51
2021/12/17 02:31:27;;;;;;;0.00;0.00;;;4.90;95.70;;;;;;20579422;28;20521;-50
2021/12/17 02:52:05;;;;;;;0.20;0.10;;;5.80;94.30;;;;;;20810436;28;20046;-53
2021/12/17 03:02:09;;;;;;;0.13;0.00;;;5.90;93.90;;;;;;20807821;28;20037;-49
2021/12/17 03:12:19;;;;;;;0.10;0.00;;;5.80;93.90;;;;;;20807658;28;20418;-50
2021/12/17 03:32:43;;;;;;;0.20;0.03;;;5.80;93.50;;;;;;20789276;28;20091;-51
2021/12/17 03:42:50;;;;;;;0.38;0.00;;;5.60;93.80;;;;;;20804364;28;20050;-49
2021/12/17 03:52:55;;;;;;;0.10;0.00;;;6.00;93.20;;;;;;20803958;28;20045;-52
2021/12/17 04:03:04;;;;;;;0.10;0.00;;;6.50;92.30;;;;;;20631878;28;20046;-49
2021/12/17 04:13:30;;;;;;;0.00;0.00;;;6.60;92.30;;;;;;20630281;28;20070;-51
2021/12/17 04:23:38;;;;;;;0.30;0.00;;;6.40;93.00;;;;;;20630756;28;20384;-51
2021/12/17 04:33:42;;;;;;;0.25;0.00;;;5.90;93.30;;;;;;20772706;28;20037;-51
2021/12/17 04:44:16;;;;;;;0.55;0.10;;;5.50;94.80;;;;;;20796626;28;20046;-50
2021/12/17 05:04:37;;;;;;;0.15;0.00;;;4.90;94.60;;;;;;20800485;28;20041;-51
2021/12/17 05:25:04;;;;;;;0.13;0.00;;;5.50;93.80;;;;;;20804864;28;20029;-52
2021/12/17 05:35:10;;;;;;;0.00;0.00;;;5.60;93.10;;;;;;20814858;28;20564;-53
2021/12/17 05:45:33;;;;;;;0.10;0.00;;;6.10;92.20;;;;;;20815339;28;20444;-52
2021/12/17 05:55:37;;;;;;;0.00;0.00;;;6.00;92.40;;;;;;20814675;28;20559;-52
2021/12/17 06:05:39;;;;;;;3.47;0.15;;;5.50;92.10;;;;;;20796025;28;20099;-49
2021/12/17 06:15:43;;;;;;;0.08;0.08;;;4.50;94.60;;;;;;20811952;28;20037;-53
2021/12/17 06:25:46;;;;;;;0.13;0.10;;;3.50;97.40;;;;;;20811697;28;20067;-49
2021/12/17 06:35:51;;;;;;;0.20;0.10;;;2.80;97.70;;;;;;20809712;28;20042;-51
2021/12/17 06:46:02;;;;;;;0.28;0.08;;;2.30;99.90;;;;;;20793440;28;20456;-51
2021/12/17 07:07:17;;;;;;;0.00;0.00;;;1.70;99.90;;;;;;20807846;28;20033;-50
2021/12/17 07:17:39;;;;;;;0.35;0.00;;;1.80;99.90;;;;;;20806996;28;20447;-53
2021/12/17 07:48:34;;;;;;;0.00;0.00;;;2.70;99.90;;;;;;20787918;28;20034;-49
2021/12/17 07:58:41;;;;;;;0.30;0.00;;;3.40;99.90;;;;;;20806810;28;20494;-49
2021/12/17 08:08:45;;;;;;;0.43;0.10;;;4.20;99.30;;;;;;20805788;28;20033;-50
2021/12/17 08:39:08;;;;;;;0.00;0.00;;;6.90;95.30;;;;;;20793197;28;20103;-50
2021/12/17 08:49:30;;;;;;;0.03;0.00;;;7.80;92.80;;;;;;20800588;28;20107;-52
2021/12/17 08:59:48;;;;;;;0.47;0.10;;;8.60;91.40;;;;;;20800485;28;20037;-51
2021/12/17 09:09:51;;;;;;;0.17;0.10;;;9.40;91.00;;;;;;20800963;28;20037;-56
2021/12/17 09:20:08;;;;;;;0.00;0.00;;;9.50;90.10;;;;;;20816972;28;20038;-60
2021/12/17 09:30:15;;;;;;;0.00;0.00;;;10.20;90.40;;;;;;20782600;28;20037;-59
2021/12/17 09:40:18;;;;;;;0.50;0.10;;;11.00;85.00;;;;;;20782641;28;20049;-60
2021/12/17 09:50:22;;;;;;;0.08;0.03;;;12.00;82.50;;;;;;20798442;28;20483;-61
2021/12/17 10:00:27;;;;;;;0.22;0.15;;;12.90;80.10;;;;;;20798143;28;20359;-53
2021/12/17 10:10:45;;;;;;;0.30;0.10;;;13.30;77.80;;;;;;20801471;28;20033;-56
2021/12/17 10:20:48;;;;;;;0.05;0.03;;;13.60;74.20;;;;;;20812111;28;20108;-54
2021/12/17 10:30:55;;;;;;;0.13;0.13;;;14.10;70.10;;;;;;20810926;28;20103;-53
2021/12/17 10:41:07;;;;;;;0.38;0.10;;;14.20;70.40;;;;;;20802122;28;20107;-53
2021/12/17 10:51:19;;;;;;;0.50;0.20;;;14.30;70.00;;;;;;20809765;28;20041;-56
2021/12/17 11:01:37;;;;;;;0.20;0.00;;;14.60;68.20;;;;;;20808382;28;20037;-54
2021/12/17 11:11:42;;;;;;;0.70;0.20;;;14.70;64.70;;;;;;20807841;28;20067;-57
2021/12/17 11:21:45;;;;;;;0.20;0.00;;;14.40;64.10;;;;;;20807078;28;20033;-56
2021/12/17 11:31:48;;;;;;;0.13;0.10;;;14.20;66.70;;;;;;20805875;28;20063;-57
2021/12/17 11:42:00;;;;;;;0.08;0.05;;;14.30;68.90;;;;;;20804989;28;20099;-55
2021/12/17 11:52:04;;;;;;;0.20;0.03;;;14.40;66.10;;;;;;20804458;28;20054;-56
2021/12/17 12:02:14;;;;;;;0.20;0.10;;;14.30;63.80;;;;;;20803547;28;20041;-54
2021/12/17 12:12:17;;;;;;;0.57;0.22;;;14.20;65.00;;;;;;20804309;28;20033;-57
2021/12/17 12:22:31;;;;;;;0.45;0.13;;;14.10;62.90;;;;;;20802373;28;20033;-57
2021/12/17 12:32:33;;;;;;;0.30;0.20;;;13.80;67.60;;;;;;20801988;28;20099;-54
2021/12/17 12:42:37;;;;;;;0.95;0.38;;;13.50;67.70;;;;;;20727842;28;20515;-57
2021/12/17 12:52:53;;;;;;;0.57;0.20;;;13.10;67.90;;;;;;20734963;28;20042;-57
2021/12/17 13:03:07;;;;;;;0.57;0.32;;;12.70;67.20;;;;;;20735148;28;20030;-53
2021/12/17 13:13:22;;;;;;;0.50;0.30;;;12.10;70.70;;;;;;20736031;28;20080;-55
2021/12/17 13:23:26;;;;;;;0.77;0.32;;;11.20;73.00;;;;;;20735198;28;20049;-58
2021/12/17 13:33:38;;;;;;;0.77;0.40;;;10.40;74.50;;;;;;20736395;28;20046;-57
2021/12/17 13:43:41;;;;;;;1.17;0.60;;;9.70;78.20;;;;;;20786125;28;20053;-59
2021/12/17 13:53:44;;;;;;;6.07;0.80;;;9.00;78.30;;;;;;20798101;28;20091;-57
2021/12/17 14:03:49;;;;;;;1.35;0.50;;;8.60;80.20;;;;;;20813076;28;20045;-53
2021/12/17 14:13:54;;;;;;;0.88;0.50;;;8.20;82.80;;;;;;20813828;28;20107;-53
2021/12/17 14:23:59;;;;;;;1.63;0.80;;;8.00;82.60;;;;;;20829637;28;20037;-57
2021/12/17 14:34:02;;;;;;;1.75;0.80;;;7.90;85.60;;;;;;20811068;28;20962;-48
2021/12/17 15:04:52;;;;;;;;;;;6.70;89.70;;;;;;20809350;28;20045;-54
2021/12/17 15:14:55;;;;;;;0.00;0.00;;;6.00;90.70;;;;;;20807832;28;20451;-49
2021/12/17 15:24:58;;;;;;;0.20;0.00;;;5.10;92.60;;;;;;20807103;28;20087;-48
2021/12/17 15:35:01;;;;;;;0.10;0.10;;;4.50;94.90;;;;;;20806589;28;20555;-48
2021/12/17 15:45:05;;;;;;;0.20;0.05;;;4.20;95.50;;;;;;20805877;28;20478;-50
2021/12/17 15:55:08;;;;;;;0.35;0.10;;;4.20;94.70;;;;;;20804642;28;20445;-48
2021/12/17 16:05:14;;;;;;;0.20;0.10;;;4.10;95.10;;;;;;20803687;28;20033;-48
2021/12/17 16:25:37;;;;;;;;;;;3.80;94.90;;;;;;20802428;28;20092;-49
2021/12/17 16:35:41;;;;;;;0.00;0.00;;;3.60;95.10;;;;;;20809484;28;19939;-50
2021/12/17 16:46:02;;;;;;;0.00;0.00;;;3.50;94.20;;;;;;20801461;28;20527;-49
2021/12/17 16:56:06;;;;;;;0.03;0.00;;;3.60;92.20;;;;;;20784723;28;20038;-48
2021/12/17 17:06:10;;;;;;;0.63;0.03;;;3.20;93.20;;;;;;20800488;28;20033;-48
2021/12/17 17:16:13;;;;;;;0.13;0.10;;;3.00;91.70;;;;;;20800401;28;20106;-48
2021/12/17 17:26:16;;;;;;;0.55;0.00;;;2.80;93.50;;;;;;20816069;28;20045;-49
2021/12/17 17:36:22;;;;;;;0.57;0.00;;;2.60;94.00;;;;;;20815192;28;20060;-47
2021/12/17 17:46:27;;;;;;;0.30;0.00;;;2.50;95.20;;;;;;20814842;28;20037;-47
2021/12/17 17:56:31;;;;;;;0.10;0.03;;;2.60;94.40;;;;;;20799084;28;20118;-47
2021/12/17 18:06:35;;;;;;;0.32;0.00;;;2.90;94.80;;;;;;20813228;28;20100;-48
2021/12/17 18:16:40;;;;;;;0.00;0.00;;;2.90;92.80;;;;;;20780150;28;20045;-48
2021/12/17 18:26:42;;;;;;;0.08;0.00;;;3.10;92.10;;;;;;20811856;28;20037;-48
2021/12/17 18:36:45;;;;;;;0.10;0.08;;;3.20;92.00;;;;;;20801072;28;20045;-48
2021/12/17 18:46:50;;;;;;;0.50;0.10;;;3.50;91.00;;;;;;20810219;28;20038;-48
2021/12/17 18:56:52;;;;;;;1.13;0.20;;;3.50;90.90;;;;;;20793356;28;20071;-49
2021/12/17 19:06:57;;;;;;;0.25;0.10;;;3.20;92.10;;;;;;20808614;28;20111;-48
2021/12/17 19:17:00;;;;;;;0.15;0.10;;;2.90;91.90;;;;;;20807525;28;20099;-52
2021/12/17 19:27:02;;;;;;;0.00;0.00;;;2.80;92.70;;;;;;20807148;28;20030;-47
2021/12/17 19:37:07;;;;;;;0.30;0.05;;;3.10;91.40;;;;;;20789740;28;20038;-49
2021/12/17 19:57:15;;;;;;;0.00;0.00;;;3.00;91.70;;;;;;20805156;28;20107;-48
2021/12/17 20:07:18;;;;;;;0.10;0.10;;;4.00;81.30;;;;;;20722455;28;20077;-49
2021/12/17 20:17:20;;;;;;;0.00;0.00;;;5.20;77.70;;;;;;20658599;28;20416;-49
2021/12/17 20:27:23;;;;;;;0.75;0.00;;;5.80;72.40;;;;;;20671822;28;20066;-48
2021/12/17 20:37:26;;;;;;;0.10;0.00;;;6.10;70.10;;;;;;20703934;28;20037;-47
2021/12/17 20:47:29;;;;;;;0.22;0.00;;;5.90;72.40;;;;;;20800631;28;20095;-49
2021/12/17 20:57:32;;;;;;;0.50;0.10;;;5.70;71.90;;;;;;20799598;28;20095;-50
2021/12/17 21:07:34;;;;;;;0.13;0.05;;;6.10;69.60;;;;;;20818435;28;20378;-49
2021/12/17 21:17:39;;;;;;;0.10;0.00;;;6.30;69.30;;;;;;20782889;28;20478;-49
2021/12/17 21:27:42;;;;;;;0.00;0.00;;;6.00;69.30;;;;;;20798661;28;20087;-49
2021/12/17 21:37:46;;;;;;;0.28;0.08;;;6.10;68.70;;;;;;20787253;28;20029;-49
2021/12/17 21:47:50;;;;;;;0.10;0.00;;;6.30;69.80;;;;;;20797867;28;20041;-48
2021/12/17 21:57:54;;;;;;;0.00;0.00;;;6.50;68.00;;;;;;20798252;28;20113;-48
2021/12/17 22:07:58;;;;;;;0.00;0.00;;;7.20;67.60;;;;;;20803540;28;20068;-47
2021/12/17 22:18:01;;;;;;;0.10;0.00;;;7.10;67.90;;;;;;20811807;28;20033;-48
2021/12/17 22:28:05;;;;;;;0.20;0.08;;;6.90;68.40;;;;;;20810902;28;20552;-47
2021/12/17 22:38:13;;;;;;;0.00;0.00;;;6.70;69.00;;;;;;20809751;28;20049;-48
2021/12/17 22:48:18;;;;;;;0.00;0.00;;;6.70;68.50;;;;;;20809033;28;20088;-48
2021/12/17 22:58:21;;;;;;;0.00;0.00;;;6.60;69.70;;;;;;20808729;28;20037;-47
2021/12/17 23:08:54;;;;;;;0.10;0.00;;;6.40;70.20;;;;;;20807687;28;20037;-48
2021/12/17 23:18:52;;;;;;;0.35;0.03;;;6.50;69.00;;;;;;20570786;28;20074;-49
2021/12/17 23:28:57;;;;;;;0.20;0.03;;;6.90;66.10;;;;;;20570839;28;20416;-50
2021/12/17 23:39:00;;;;;;;0.00;0.00;;;7.40;65.70;;;;;;20558816;28;20070;-48
2021/12/17 23:49:04;;;;;;;0.15;0.00;;;6.90;66.60;;;;;;20568895;28;20046;-48
2021/12/17 23:59:08;;;;;;;0.00;0.00;;;6.80;67.10;;;;;;20657352;28;20046;-48
